Annona, Texas
Current Conditions -  °F | °C
As of 11:35 AM on Friday 21 Nov 2014 (Local Time) from K4O4 Reporting Station
Overcast Overcast  
Wind Chill: 54°   Ceiling: 200
Heat Index: 54°   Visibility: 2mi
Dew Point: 52°   Wind: 7mph
Humidity: 94%   Direction: 110°ESE
Pressure: 30.19"   Gusts: NA
Location:  33.58°N, 94.92°W
Report Text: K4O4 211735Z AUTO 11006KT 2SM OVC002 12/11 A3019 RMK AO2
Loading
Personal Weather Stations






























Interactive Weather Map New forecast layout! Learn more

10-Day Weather Forecast

Advertisements
Track Severe Weather on mobile